Badger Spring Valley, Nevada Weather observations

Data are for 10 minute period ending at time listed.
 Day   Time   Solar   Ave.   Ave.  Ave.  Vector  Max.   Baro.   Total    
  of    of     Rad.   Air    Rel.  Wind   Wind   Wind  Press.  Precip.   
Year   Day            Temp.  Hum.  Speed  Dir.   Gust                    
2015   (PST)  Kw/m2    F      %     mph   deg.    mph    mb.     in.     
-------------------------------------------------------------------------
  62    1:20   0.00   33.2    86   12.3   278    17.4   825.1    0.00 
  62    1:30   0.00   33.4    85   12.1   276    18.8   825.1    0.00 
  62    1:40   0.00   33.5    85   11.8   273    17.9   825.1    0.00 
  62    1:50   0.00   33.4    86    9.4   264    14.5   825.1    0.00 
  62    2:00   0.00   33.3    86    8.6   265    13.1   825.1    0.00 
  62    2:10   0.00   33.0    86    9.0   270    12.3   825.0    0.00 
  62    2:20   0.00   32.8    87    9.4   277    13.0   825.0    0.00 
  62    2:30   0.00   32.8    86    9.5   268    13.4   825.0    0.00 
  62    2:40   0.00   32.8    87    7.5   267    11.2   824.9    0.00 
  62    2:50   0.00   32.7    86    5.1   273     9.6   824.9    0.00 
  62    3:00   0.00   31.9    88    2.3   209     6.9   824.8    0.00 
  62    3:10   0.00   31.2    90    3.2   236     8.4   824.8    0.00 
  62    3:20   0.00   32.4    87    6.1   258     9.6   824.8    0.00 
  62    3:30   0.00   32.5    86    5.9   250     9.5   824.8    0.00 
  62    3:40   0.00   32.4    86    5.9   247     9.4   824.7    0.00 
  62    3:50   0.00   32.6    86    5.4   256     8.4   824.8    0.00 
  62    4:00   0.00   32.0    86    2.9   296     7.2   824.7    0.00 
  62    4:10   0.00   30.2    89    3.8   314     5.0   824.7    0.00 
  62    4:20   0.00   29.7    90    3.4   323     4.5   824.6    0.00 
  62    4:30   0.00   30.3    89    2.5   311     3.7   824.5    0.00 
  62    4:40   0.00   29.9    88    2.7   319     4.2   824.5    0.00 
  62    4:50   0.00   30.5    88    1.7   284     4.3   824.5    0.00 
  62    5:00   0.00   31.6    84    3.4   264     5.6   824.4    0.00 
  62    5:10   0.00   31.1    85    6.1   264     9.3   824.4    0.00 
  62    5:20   0.00   31.2    86    7.1   243    12.0   824.4    0.00 
  62    5:30   0.00   30.9    86    3.8   249     6.2   824.3    0.00 
  62    5:40   0.00   29.8    88    1.0   218     3.1   824.3    0.00 
  62    5:50   0.00   30.2    87    2.8   134     5.1   824.2    0.00 
  62    6:00   0.00   29.7    91    2.8   127     3.7   824.2    0.00 
  62    6:10   0.00   29.0    91    2.4   124     3.5   824.3    0.00 
  62    6:20   0.01   29.0    92    2.5   226     3.7   824.4    0.00 
  62    6:30   0.02   28.6    94    1.4   260     4.1   824.4    0.00 
  62    6:40   0.08   30.4    93    1.4    52     3.3   824.5    0.00 
  62    6:50   0.05   31.7    88    0.8    98     1.8   824.5    0.00 
  62    7:00   0.04   31.2    89    1.4   255     3.1   824.5    0.00 
  62    7:10   0.21   32.8    86    2.5   263     4.5   824.6    0.00 
  62    7:20   0.25   35.0    82    2.5   176     4.2   824.5    0.00 
  62    7:30   0.30   36.1    79    3.1   101     5.7   824.6    0.00 
  62    7:40   0.33   36.0    79    3.5   124     6.0   824.5    0.00 
  62    7:50   0.39   37.2    75    3.4   150     5.5   824.5    0.00 
  62    8:00   0.33   37.6    72    2.6   140     7.5   824.5    0.00 
  62    8:10   0.36   37.6    71    3.4   258     6.3   824.4    0.00 
  62    8:20   0.38   37.9    71    4.8   232     9.4   824.4    0.00 
  62    8:30   0.41   37.8    72    5.1   229    10.2   824.4    0.00 
  62    8:40   0.44   38.1    71    5.0   231    10.8   824.5    0.00 
  62    8:50   0.46   38.3    72    6.5   220    11.0   824.6    0.00 
  62    9:00   0.50   38.8    69    7.2   253    13.4   824.7    0.00 
  62    9:10   0.53   39.1    68    8.0   272    13.5   824.8    0.00 
  62    9:20   0.49   38.8    68   10.2   266    14.7   824.8    0.00 
  62    9:30   0.43   37.9    70    7.4   255    14.0   824.8    0.00 
  62    9:40   0.62   39.1    68    7.0   232    12.4   824.8    0.00 
  62    9:50   0.56   39.4    67    8.0   246    15.2   824.7    0.00 
  62   10:00   0.68   39.9    67    5.4   228    12.9   824.7    0.00 
  62   10:10   0.64   40.5    66    6.2   210    11.8   824.7    0.00 
  62   10:20   0.57   40.7    66    6.2   216    11.6   824.7    0.00 
  62   10:30   0.33   39.6    64    6.2   224    12.1   824.8    0.00 
  62   10:40   0.45   39.7    64    5.2   277    12.9   824.7    0.00 
  62   10:50   0.78   41.1    64    6.8   258    11.0   824.7    0.00 
  62   11:00   0.55   41.1    64    7.4   239    12.0   824.7    0.00 
  62   11:10   0.44   39.9    66    8.0   235    14.8   824.6    0.00 
  62   11:20   0.56   40.4    67    7.4   224    14.6   824.5    0.00 
  62   11:30   0.30   40.0    66    7.6   213    19.7   824.4    0.00 
  62   11:40   0.22   39.2    70    8.6   241    13.0   824.3    0.00 
  62   11:50   0.17   38.1    78    6.1   234    12.6   824.2    0.00 
  62   12:00   0.43   39.3    71    5.4   223     8.8   824.0    0.00 
  62   12:10   0.33   39.9    62    8.2   243    15.2   823.9    0.00 
  62   12:20   0.17   39.9    60    5.4   242    12.6   823.8    0.00 
  62   12:30   0.07   38.8    66    9.3   278    19.5   823.9    0.00 
  62   12:40   0.05   35.7    78    5.4   352     8.8   823.9    0.00 
  62   12:50   0.17   34.9    85    7.8    11    11.1   823.8    0.00 
  62   13:00   0.64   36.8    83    4.9     8     7.6   823.7    0.02 
  62   13:10   0.80   39.3    73    9.7   341    21.6   823.6    0.06 
  62   13:20   0.75   41.4    59   11.5   298    18.9   823.5    0.00 
  62   13:30   0.82   41.8    61   14.4   300    20.9   823.4    0.00 
  62   13:40   0.66   41.8    62   16.5   314    23.7   823.5    0.00 
  62   13:50   0.34   39.1    65   18.3   323    23.3   823.5    0.00 
  62   14:00   0.31   38.9    66   12.8   307    20.5   823.4    0.00 
  62   14:10   0.37   39.7    63   14.5   300    20.7   823.4    0.00 
  62   14:20   0.62   41.1    61   13.1   304    19.4   823.2    0.00 
  62   14:30   0.59   42.2    56   15.5   306    25.3   823.2    0.00 
  62   14:40   0.57   41.9    57   17.2   296    23.1   823.2    0.00 
  62   14:50   0.60   41.8    57   16.5   294    22.6   823.2    0.00 
  62   15:00   0.58   42.2    60   13.6   298    20.2   823.4    0.00 
  62   15:10   0.51   42.7    58    9.2   304    17.6   823.4    0.00 
  62   15:20   0.52   42.0    66    6.1    28    13.3   823.5    0.00 
  62   15:30   0.54   41.0    71    6.0     7    13.7   823.6    0.01 
  62   15:40   0.54   40.0    74    9.7    35    13.5   823.8    0.00 
  62   15:50   0.44   39.6    74    9.2    35    15.2   823.9    0.00 
  62   16:00   0.47   40.3    68    9.9   360    20.2   823.9    0.00 
  62   16:10   0.21   38.8    70   10.6     3    15.7   824.0    0.00 
  62   16:20   0.24   38.3    70    9.4   354    17.5   823.8    0.00 
  62   16:30   0.20   38.4    69   11.4     1    19.9   823.9    0.00 
  62   16:40   0.18   38.6    69    9.8   354    14.1   823.9    0.00 
  62   16:50   0.11   38.3    67    8.7   348    14.5   824.0    0.00 
  62   17:00   0.05   38.0    67    6.9   334    10.2   824.1    0.00 
  62   17:10   0.06   37.6    66    7.6   345    20.0   824.3    0.00 
  62   17:20   0.03   37.0    57   13.4   355    20.4   824.6    0.00 
  62   17:30   0.01   36.1    56   13.2     3    20.2   824.8    0.00 
  62   17:40   0.01   35.3    55   14.5   359    21.5   825.0    0.00 
  62   17:50   0.00   34.3    52   14.0   347    23.4   825.2    0.00 
  62   18:00   0.00   33.6    54   13.0   352    18.7   825.4    0.00 
  62   18:10   0.00   33.1    55   13.1   348    22.0   825.5    0.00 
  62   18:20   0.00   32.8    55   13.8   349    20.8   825.6    0.00 
  62   18:30   0.00   32.5    56   13.6   346    21.4   825.6    0.00 
  62   18:40   0.00   32.1    57   12.2   343    20.0   825.8    0.00 
  62   18:50   0.00   31.8    58   10.6   331    18.3   825.9    0.00 
  62   19:00   0.00   31.6    56   14.3   334    22.2   826.0    0.00 
  62   19:10   0.00   31.3    54   12.1   334    22.1   826.1    0.00 
  62   19:20   0.00   31.2    52   10.9   338    21.0   826.2    0.00 
  62   19:30   0.00   30.9    52   11.8   342    22.0   826.3    0.00 
  62   19:40   0.00   30.7    52    9.8   341    18.3   826.3    0.00 
  62   19:50   0.00   30.6    50   14.6   343    23.8   826.4    0.00 
  62   20:00   0.00   30.5    49   16.7   347    25.0   826.3    0.00 
  62   20:10   0.00   30.5    49   17.4   343    26.4   826.4    0.00 
  62   20:20   0.00   30.2    50   17.1   346    26.8   826.6    0.00 
  62   20:30   0.00   29.9    52   17.4   344    25.6   826.7    0.00 
  62   20:40   0.00   29.7    52   14.3   340    28.6   826.8    0.00 
  62   20:50   0.00   29.5    52   10.8   339    22.0   827.0    0.00 
  62   21:00   0.00   28.9    53    8.1   338    15.7   827.2    0.00 
  62   21:10   0.00   29.0    52   13.2   341    29.1   827.3    0.00 
  62   21:20   0.00   29.2    50   13.9   351    29.3   827.2    0.00 
  62   21:30   0.00   29.2    50   14.4   352    24.3   827.3    0.00 
  62   21:40   0.00   29.0    50   14.1   355    27.0   827.4    0.00 
  62   21:50   0.00   28.8    51   13.7   358    28.1   827.4    0.00 
  62   22:00   0.00   28.6    51   15.3   357    26.5   827.4    0.00 
  62   22:10   0.00   28.3    52   20.2   357    28.1   827.4    0.00 
  62   22:20   0.00   28.3    52   19.1   358    26.4   827.4    0.00 
  62   22:30   0.00   28.3    51   19.2   355    29.7   827.5    0.00 
  62   22:40   0.00   28.2    51   21.9   357    29.5   827.5    0.00 
  62   22:50   0.00   27.9    52   20.1   357    32.7   827.4    0.00 
  62   23:00   0.00   27.8    52   21.0   353    31.6   827.4    0.00 
  62   23:10   0.00   27.9    52   19.8   355    30.8   827.6    0.00 
  62   23:20   0.00   27.7    52   18.9   357    29.5   827.8    0.00 
  62   23:30   0.00   27.6    52   18.9   355    33.5   827.9    0.00 
  62   23:40   0.00   27.5    52   21.4   359    31.4   827.9    0.00 
  62   23:50   0.00   27.4    52   18.6   357    29.1   828.0    0.00 
  63    0:00   0.00   27.3    52   20.3   357    30.0   828.0    0.00 
  63    0:10   0.00   27.1    53   19.6   357    32.7   828.1    0.00 
  63    0:20   0.00   26.8    54   15.7   355    25.6   828.3    0.00 
  63    0:30   0.00   26.9    53   11.9   343    20.8   828.4    0.00 
  63    0:40   0.00   27.1    52    6.8   314    18.1   828.7    0.00 
  63    0:50   0.00   26.7    53    4.1   315     9.3   828.7    0.00 
  63    1:00   0.00   26.6    53   10.2   343    16.9   828.7    0.00 
  63    1:10   0.00   26.6    54    9.7   339    16.7   828.7    0.00 

Return to Badger Spring Valley graphs page.


Western Regional Climate Center,wrcc@dri.edu